Gumbo, South Dakota
Current Conditions -  °F | °C
As of 4:55 AM on Friday 28 Nov 2014 (Local Time) from KPHP Reporting Station
Clear Clear  
Wind Chill: 23°   Ceiling: Unl
Heat Index: 29°   Visibility: 10mi
Dew Point: 25°   Wind: 6mph
Humidity: 85%   Direction: 310°NW
Pressure: 29.7"   Gusts: NA
Location:  44.0995°N, 102.331°W
Report Text: KPHP 281155Z AUTO 31005KT 10SM CLR M02/M04 A2970 RMK AO2 SLP075 T10171039 11006 21056 56023
Loading
Personal Weather Stations






























Interactive Weather Map New forecast layout! Learn more

10-Day Weather Forecast

Advertisements
Track Severe Weather on mobile